Tiempo atmosférico en la estación meteorológica de Motril, Puerto, Granada (3 m.)



Fecha
DESCASC
Temp. máxima en grados centígrados (hora)
DESCASC
Temp. mínima en grados centígrados (hora)
DESCASC
Temp. media en grados centígrados
DESCASC
Racha de viento máxima en m/sg (hora)
DESCASC
Velocidad máxima media en intervalos de 10 minutos(hora)
DESCASC
Precipitaciones diarias en mm
DESCASC
Precipitaciones de 00:00 a 06:00 en mm
DESCASC
Precipitaciones de 06:00 a 12:00 en mm
DESCASC
Precipitaciones de 12:00 a 18:00 en mm
DESCASC
Precipitaciones de 18:00 a 24:00 en mm
DESCASC
17-02-2019 20 (10:50) 9.7 (08:30) 14.8 8.61 (11:50) 5.56 (11:50) 0 0 0 0 0
16-02-2019 22.4 (10:40) 7.6 (07:50) 15 15.28 (16:00) 10 (16:00) 0 0 0 0 0
15-02-2019 17.4 (10:30) 10.2 (08:10) 13.8 9.17 (17:10) 6.67 (12:50) 0 0 0 0 0
14-02-2019 20.4 (11:40) 8.2 (00:00) 14.3 8.89 (16:50) 7.5 (16:50) 0 0 0 0 0
13-02-2019 22.2 (10:50) 7.5 (00:00) 14.9 10.28 (14:50) 8.06 (14:50) 0 0 0 0 0
12-02-2019 16.7 (11:40) 10.4 (00:00) 13.6 11.67 (12:20) 8.06 (13:20) 0 0 0 0 0
11-02-2019 -- (--) -- (--) -- 11.11 (01:50) 5 (00:10) 0 0 0 0 0
10-02-2019 -- (--) -- (--) -- 11.67 (21:20) 5.83 (23:10) 0 0 0 0 0
09-02-2019 -- (--) -- (--) -- 3.33 (12:40) 2.22 (12:50) 0 0 0 0 0
08-02-2019 -- (--) -- (--) -- 7.78 (12:20) 6.11 (13:50) 0 0 0 0 0
07-02-2019 -- (--) -- (--) -- 4.17 (11:10) 2.5 (11:10) 0 0 0 0 0
06-02-2019 -- (--) -- (--) -- 3.61 (16:50) 1.94 (15:50) 0 0 0 0 0
05-02-2019 -- (--) -- (--) -- 4.72 (14:40) 3.06 (14:30) 0 0 0 0 0
04-02-2019 -- (--) -- (--) -- 8.61 (01:50) 4.72 (06:40) 0 0 0 0 0
03-02-2019 -- (--) -- (--) -- 10.83 (00:20) 5.83 (00:40) 0 0 0 0 0
02-02-2019 -- (--) -- (--) -- 16.94 (23:10) 9.72 (23:10) 0.2 0 0.2 0 0
01-02-2019 -- (--) -- (--) -- 18.89 (10:30) 11.39 (10:30) 17.6 4.8 12.6 0 0.2
31-01-2019 -- (--) -- (--) -- 14.72 (11:30) 9.17 (11:20) 0 0 0 0 0
30-01-2019 -- (--) -- (--) -- 13.33 (12:30) 8.61 (12:00) 0 0 0 0 0
29-01-2019 -- (--) -- (--) -- 17.22 (10:20) 8.33 (09:00) 0 0 0 0 0
28-01-2019 -- (--) -- (--) -- 20.56 (19:30) 12.5 (19:30) 0 0 0 0 0
27-01-2019 -- (--) -- (--) -- 20.83 (18:20) 10.83 (18:20) 0 0 0 0 0
26-01-2019 -- (--) -- (--) -- 5.83 (11:40) 4.72 (11:40) 0 0 0 0 0
25-01-2019 -- (--) -- (--) -- 8.61 (02:40) 5.28 (13:10) 0 0 0 0 0
24-01-2019 -- (--) -- (--) -- 18.33 (04:10) 9.17 (04:50) 0 0 0 0 0
23-01-2019 -- (--) -- (--) -- 21.67 (09:30) 13.89 (10:00) 0 0 0 0 0
22-01-2019 -- (--) -- (--) -- 15 (19:10) 9.17 (19:20) 0 0 0 0 0
21-01-2019 -- (--) -- (--) -- 9.17 (02:00) 5 (01:50) 0 0 0 0 0
20-01-2019 -- (--) -- (--) -- 16.39 (17:20) 8.61 (15:40) 0.8 0.8 0 0 0
19-01-2019 -- (--) -- (--) -- 11.67 (01:40) 6.67 (01:40) 0 0 0 0 0

Gráficas

Temp. máximas Temp. mínimas Temp. medias Precipitaciones Rachas de viento máximas Velocidades máximas media en intervalos de 10 minutos

Datos horarios

Fecha y hora oficial Temperatura (ºC) Velocidad del viento (km/h) Dirección del viento Racha (km/h) Dirección de racha Precipitación (mm) Presión (hPa) Tendencia (hPa) Humedad (%)
2019-02-17 23:00:00 11.6 4 Nordeste 6 Nordeste 0 -- -- 76
2019-02-17 22:00:00 12.1 0 Calma 4 Nordeste 0 -- -- 74
2019-02-17 21:00:00 13.2 0 Calma 3 Norte 0 -- -- 71
2019-02-17 20:00:00 14.5 2 Nordeste 6 Sur 0 -- -- 67
2019-02-17 19:00:00 15.2 3 Sur 8 Sur 0 -- -- 64
2019-02-17 18:00:00 15.9 6 Sur 9 Sur 0 -- -- 60
2019-02-17 17:00:00 16.1 6 Sur 12 Sur 0 -- -- 62
2019-02-17 16:00:00 17.8 9 Sur 13 Sur 0 -- -- 59
2019-02-17 15:00:00 18.1 8 Sur 17 Sudoeste 0 -- -- 58
2019-02-17 14:00:00 18.4 10 Sudoeste 21 Sudoeste 0 -- -- 58
2019-02-17 13:00:00 19.2 9 Oeste 28 Oeste 0 -- -- 55
2019-02-17 12:00:00 18.5 17 Oeste 31 Oeste 0 -- -- 56
2019-02-17 11:00:00 19.9 9 Oeste 18 Oeste 0 -- -- 51
2019-02-17 10:00:00 17.3 2 Sudeste 8 Nordeste 0 -- -- 61
2019-02-17 09:00:00 12.8 0 Calma 6 Norte 0 -- -- 79
2019-02-17 08:00:00 10.2 4 Norte 8 Nordeste 0 -- -- 84
2019-02-17 07:00:00 10.1 3 Norte 8 Norte 0 -- -- 85
2019-02-17 06:00:00 10.5 5 Norte 8 Nordeste 0 -- -- 86
2019-02-17 05:00:00 10.3 3 Norte 10 Nordeste 0 -- -- 84
2019-02-17 04:00:00 10.8 5 Norte 8 Norte 0 -- -- 84
2019-02-17 03:00:00 11 2 Norte 9 Norte 0 -- -- 84
2019-02-17 02:00:00 11.2 0 Calma 8 Nordeste 0 -- -- 85
2019-02-17 01:00:00 10.6 3 Norte 5 Este 0 -- -- 83
2019-02-17 00:00:00 11 0 Calma 6 Noroeste 0 -- -- 81
2019-02-16 23:00:00 12.3 5 Oeste 12 Sudeste 0 -- -- 78
2019-02-16 22:00:00 13.4 2 Este 15 Sudeste 0 -- -- 75
2019-02-16 21:00:00 13.5 8 Nordeste 26 Este 0 -- -- 75
2019-02-16 20:00:00 14.3 9 Nordeste 24 Este 0 -- -- 72
2019-02-16 19:00:00 14.7 10 Este 32 Este 0 -- -- 75
2019-02-16 18:00:00 15.2 14 Este 45 Este 0 -- -- 71
2019-02-16 17:00:00 15.5 28 Este 54 Este 0 -- -- 68
2019-02-16 16:00:00 16 36 Este 55 Este 0 -- -- 65
2019-02-16 15:00:00 16.9 26 Este 42 Este 0 -- -- 60
2019-02-16 14:00:00 17.5 19 Este 39 Este 0 -- -- 57
2019-02-16 13:00:00 17.4 19 Este 36 Este 0 -- -- 58
2019-02-16 12:00:00 16.3 25 Este 36 Este 0 -- -- 61
2019-02-16 11:00:00 21 4 Sur 9 Sudeste 0 -- -- 44
2019-02-16 10:00:00 16.8 3 Sudeste 5 Sudeste 0 -- -- 58
2019-02-16 09:00:00 11.7 0 Calma 6 Noroeste 0 -- -- 82
2019-02-16 08:00:00 7.6 0 Calma 8 Norte 0 -- -- 85
2019-02-16 07:00:00 8.1 0 Calma 10 Nordeste 0 -- -- 86
2019-02-16 06:00:00 8.6 5 Nordeste 9 Nordeste 0 -- -- 89
2019-02-16 05:00:00 8.5 0 Calma 6 Nordeste 0 -- -- 90
2019-02-16 04:00:00 8.7 0 Calma 5 Nordeste 0 -- -- 90
2019-02-16 03:00:00 9.6 3 Este 6 Sudeste 0 -- -- 90
2019-02-16 02:00:00 9.7 0 Calma 4 Este 0 -- -- 88
2019-02-16 01:00:00 9.7 0 Calma 5 Noroeste 0 -- -- 87
2019-02-16 00:00:00 10.5 2 Nordeste 4 Este 0 -- -- 86
2019-02-15 23:00:00 10.7 2 Norte 8 Nordeste 0 -- -- 83
2019-02-15 22:00:00 11.4 4 Nordeste 9 Nordeste 0 -- -- 82
2019-02-15 21:00:00 12.2 0 Calma 8 Nordeste 0 -- -- 78
2019-02-15 20:00:00 13.4 0 Calma 8 Norte 0 -- -- 76
2019-02-15 19:00:00 14.5 4 Nordeste 23 Este 0 -- -- 72
2019-02-15 18:00:00 15.1 15 Este 33 Sudeste 0 -- -- 72
2019-02-15 17:00:00 15 21 Sudeste 32 Este 0 -- -- 72
2019-02-15 16:00:00 15 21 Este 27 Este 0 -- -- 69
2019-02-15 15:00:00 15.4 17 Sudeste 24 Este 0 -- -- 68
2019-02-15 14:00:00 14.8 16 Este 26 Este 0 -- -- 67
2019-02-15 13:00:00 14.6 22 Sudeste 29 Sudeste 0 -- -- 72
2019-02-15 12:00:00 15.6 21 Sudeste 27 Sudeste 0 -- -- 69
2019-02-15 11:00:00 16.4 17 Sudeste 22 Sudeste 0 -- -- 66
2019-02-15 10:00:00 15.9 6 Este 9 Este 0 -- -- 67
2019-02-15 09:00:00 12.7 5 Nordeste 8 Nordeste 0 -- -- 76
2019-02-15 08:00:00 10.4 3 Nordeste 6 Nordeste 0 -- -- 82
2019-02-15 07:00:00 11.1 3 Norte 5 Norte 0 -- -- 83
2019-02-15 06:00:00 11.6 0 Calma 7 Nordeste 0 -- -- 83
2019-02-15 05:00:00 10.9 3 Nordeste 7 Nordeste 0 -- -- 84
2019-02-15 04:00:00 11.2 4 Nordeste 7 Nordeste 0 -- -- 85
2019-02-15 03:00:00 12.4 3 Nordeste 5 Este 0 -- -- 81
2019-02-15 02:00:00 13.5 4 Este 8 Sudeste 0 -- -- 78
2019-02-15 01:00:00 14 9 Este 16 Este 0 -- -- 78
2019-02-15 00:00:00 14.2 12 Este 17 Este 0 -- -- 77
2019-02-14 23:00:00 14.3 10 Este 21 Sudeste 0 -- -- 74
2019-02-14 22:00:00 14.4 16 Este 24 Sudeste 0 -- -- 78
2019-02-14 21:00:00 14.5 13 Sudeste 19 Sudeste 0 -- -- 77
2019-02-14 20:00:00 14.4 11 Sudeste 16 Sudeste 0 -- -- 75
2019-02-14 19:00:00 14.4 12 Este 25 Sudeste 0 -- -- 73
2019-02-14 18:00:00 14.6 19 Sudeste 31 Sudeste 0 -- -- 73
2019-02-14 17:00:00 14.8 25 Sudeste 32 Sudeste 0 -- -- 71
2019-02-14 16:00:00 15.7 21 Sudeste 27 Sudeste 0 -- -- 69
2019-02-14 15:00:00 15.9 16 Sudeste 27 Sudeste 0 -- -- 63
2019-02-14 14:00:00 16.3 18 Sudeste 24 Sudeste 0 -- -- 59
2019-02-14 13:00:00 17.9 9 Sudeste 14 Sudeste 0 -- -- 53
2019-02-14 12:00:00 20 5 Sur 9 Sur 0 -- -- 42
2019-02-14 11:00:00 19.7 5 Sudeste 7 Sudeste 0 -- -- 44
2019-02-14 10:00:00 17.9 0 Calma 3 Sudeste 0 -- -- 49
2019-02-14 09:00:00 12.8 0 Calma 10 Nordeste 0 -- -- 65
2019-02-14 08:00:00 8.4 4 Nordeste 9 Nordeste 0 -- -- 79
2019-02-14 07:00:00 8.3 3 Nordeste 9 Norte 0 -- -- 82
2019-02-14 06:00:00 8.9 3 Este 8 Nordeste 0 -- -- 85
2019-02-14 05:00:00 8.3 3 Norte 9 Norte 0 -- -- 85
2019-02-14 04:00:00 8.9 3 Nordeste 8 Norte 0 -- -- 85
2019-02-14 03:00:00 9.2 4 Nordeste 7 Nordeste 0 -- -- 84
2019-02-14 02:00:00 8.7 3 Norte 8 Norte 0 -- -- 84
2019-02-14 01:00:00 9.3 2 Nordeste 4 Noroeste 0 -- -- 84
2019-02-14 00:00:00 10.1 3 Noroeste 10 Este 0 -- -- 80
2019-02-13 23:00:00 11.2 5 Nordeste 11 Este 0 -- -- 78
2019-02-13 22:00:00 11.4 0 Calma 10 Este 0 -- -- 73
2019-02-13 21:00:00 13 4 Nordeste 9 Este 0 -- -- 70
2019-02-13 20:00:00 13.7 6 Este 17 Este 0 -- -- 71
2019-02-13 19:00:00 14.3 11 Este 28 Este 0 -- -- 71
2019-02-13 18:00:00 14.8 18 Este 28 Sudeste 0 -- -- 68
2019-02-13 17:00:00 15.1 19 Sudeste 31 Sudeste 0 -- -- 67
2019-02-13 16:00:00 15.7 23 Sudeste 32 Sudeste 0 -- -- 64
2019-02-13 15:00:00 15.9 28 Sudeste 37 Sudeste 0 -- -- 68
2019-02-13 14:00:00 16.1 25 Sudeste 36 Sudeste 0 -- -- 60
2019-02-13 13:00:00 16.4 21 Sudeste 31 Sudeste 0 -- -- 56
2019-02-13 12:00:00 16.5 19 Sudeste 26 Sudeste 0 -- -- 51
2019-02-13 11:00:00 21.4 3 Oeste 9 Sur 0 -- -- 35
2019-02-13 10:00:00 18.6 0 Calma 4 Sudoeste 0 -- -- 43
2019-02-13 09:00:00 12 2 Noroeste 5 Norte 0 -- -- 65
2019-02-13 08:00:00 7.7 0 Calma 7 Norte 0 -- -- 75
2019-02-13 07:00:00 8.3 3 Nordeste 7 Nordeste 0 -- -- 78
2019-02-13 06:00:00 7.5 0 Calma 4 Norte 0 -- -- 81
2019-02-13 05:00:00 8.3 0 Calma 4 Noroeste 0 -- -- 81
2019-02-13 04:00:00 8.8 0 Calma 6 Nordeste 0 -- -- 81
2019-02-13 03:00:00 9.4 2 Norte 6 Norte 0 -- -- 81
2019-02-13 02:00:00 10.9 3 Nordeste 10 Nordeste 0 -- -- 76
2019-02-13 01:00:00 9.9 2 Nordeste 7 Norte 0 -- -- 77
2019-02-13 00:00:00 11.2 4 Nordeste 15 Este 0 -- -- 73
2019-02-12 23:00:00 13.4 13 Este 26 Sudeste 0 -- -- 74
2019-02-12 22:00:00 13.9 18 Este 27 Este 0 -- -- 74
2019-02-12 21:00:00 14.1 12 Este 27 Este 0 -- -- 65
2019-02-12 20:00:00 14.5 16 Este 32 Este 0 -- -- 67
2019-02-12 19:00:00 14.8 20 Este 40 Sudeste 0 -- -- 62
2019-02-12 18:00:00 14.9 28 Este 41 Este 0 -- -- 70
2019-02-12 17:00:00 15.2 25 Este 38 Este 0 -- -- 69
2019-02-12 16:00:00 15.6 27 Sudeste 41 Sudeste 0 -- -- 69
2019-02-12 15:00:00 15.7 27 Sudeste 40 Sudeste 0 -- -- 68
2019-02-12 14:00:00 16 24 Este 40 Este 0 -- -- 61
2019-02-12 13:00:00 15.9 27 Este 42 Este 0 -- -- 56
2019-02-12 12:00:00 16 27 Este 40 Este 0 -- -- 58
2019-02-12 11:00:00 15.7 24 Este 37 Este 0 -- -- 63
2019-02-12 10:00:00 15.1 12 Este 24 Este 0 -- -- 61
2019-02-12 09:00:00 12.6 4 Nordeste 15 Este 0 -- -- 73
2019-02-12 08:00:00 11.6 3 Nordeste 13 Este 0 -- -- 77
2019-02-12 07:00:00 10.7 3 Nordeste 7 Oeste 0 -- -- 81
2019-02-12 06:00:00 11.1 0 Calma 12 Nordeste 0 -- -- 76
2019-02-12 05:00:00 10.4 3 Nordeste 7 Nordeste 0 -- -- 79
2019-02-12 04:00:00 10.6 0 Calma 5 Norte 0 -- -- 80
2019-02-12 03:00:00 10.7 0 Calma 7 Oeste 0 -- -- 81
2019-02-12 02:00:00 11 5 Noroeste 8 Norte 0 -- -- 78
2019-02-12 01:00:00 11.8 2 Este 4 Norte 0 -- -- 80
2019-02-12 00:00:00 12.4 2 Este 6 Norte 0 -- -- 78
2019-02-11 23:00:00 12.6 3 Este 5 Este 0 -- -- 80
2019-02-11 22:00:00 12.9 0 Calma 5 Nordeste 0 -- -- 76
2019-02-11 21:00:00 13.6 2 Nordeste 5 Norte 0 -- -- 78
2019-02-11 20:00:00 14.6 0 Calma 2 Sudeste 0 -- -- 82
2019-02-11 19:00:00 15.6 2 Noroeste 9 Sudoeste 0 -- -- 77
2019-02-11 18:00:00 16.5 6 Sudoeste 9 Sur 0 -- -- 75
2019-02-11 17:00:00 17.2 4 Sudoeste 8 Sudoeste 0 -- -- 73
2019-02-11 16:00:00 19.4 4 Sur 9 Sur 0 -- -- 64
2019-02-11 15:00:00 18.9 5 Sur 10 Sur 0 -- -- 65
2019-02-11 14:00:00 19.4 7 Sur 11 Sur 0 -- -- 64
2019-02-11 13:00:00 20.4 6 Sur 13 Sudeste 0 -- -- 57
2019-02-11 12:00:00 18.8 11 Sudeste 15 Sudeste 0 -- -- 60
2019-02-11 11:00:00 20.5 9 Sur 17 Sudeste 0 -- -- 57
2019-02-11 10:00:00 18 12 Sudeste 19 Sudeste 0 -- -- 62
2019-02-11 09:00:00 17 8 Este 17 Sudeste 0 -- -- 60
2019-02-11 08:00:00 15.9 9 Este 26 Nordeste 0 -- -- 54
2019-02-11 07:00:00 16.2 8 Norte 26 Norte 0 -- -- 54
2019-02-11 06:00:00 16.4 12 Noroeste 30 Noroeste 0 -- -- 53
2019-02-11 05:00:00 16.1 8 Noroeste 27 Norte 0 -- -- 54
2019-02-11 04:00:00 16.2 9 Noroeste 32 Norte 0 -- -- 53
2019-02-11 03:00:00 16.4 14 Norte 37 Norte -- -- -- 52
2019-02-11 02:00:00 16.3 18 Norte 40 Norte 0 -- -- 50
2019-02-11 01:00:00 16.2 14 Norte 39 Norte 0 -- -- 49
2019-02-11 00:00:00 16.3 17 Norte 40 Norte 0 -- -- 47
2019-02-10 23:00:00 16.5 18 Norte 37 Noroeste 0 -- -- 46
2019-02-10 22:00:00 16.5 17 Noroeste 42 Norte 0 -- -- 46
2019-02-10 21:00:00 16.5 11 Noroeste 35 Norte 0 -- -- 46
2019-02-10 20:00:00 16.5 4 Norte 21 Oeste 0 -- -- 47
2019-02-10 19:00:00 17.7 8 Noroeste 16 Noroeste 0 -- -- 43
2019-02-10 18:00:00 18.7 6 Noroeste 24 Oeste 0 -- -- 42
2019-02-10 17:00:00 17.6 15 Oeste 29 Oeste 0 -- -- 60
2019-02-10 16:00:00 18.3 16 Oeste 26 Sudoeste 0 -- -- 58
2019-02-10 15:00:00 18.3 16 Oeste 38 Oeste 0 -- -- 57
2019-02-10 14:00:00 18.1 18 Oeste 30 Oeste 0 -- -- 58
2019-02-10 13:00:00 18.2 16 Oeste 27 Sudoeste 0 -- -- 47
2019-02-10 12:00:00 16.5 12 Oeste 25 Oeste 0 -- -- 61
2019-02-10 11:00:00 19.6 10 Oeste 26 Oeste 0 -- -- 37
2019-02-10 10:00:00 16.3 15 Oeste 28 Oeste 0 -- -- 53
2019-02-10 09:00:00 12 2 Oeste 7 Sudoeste 0 -- -- 65
2019-02-10 08:00:00 6.6 3 Noroeste 6 Sudoeste 0 -- -- 78
2019-02-10 07:00:00 7.5 0 Calma 6 Noroeste 0 -- -- 78
2019-02-10 06:00:00 7.9 3 Oeste 9 Sudoeste 0 -- -- 80
2019-02-10 05:00:00 7.7 0 Calma 6 Oeste 0 -- -- 81
2019-02-10 04:00:00 7.9 0 Calma 5 Noroeste 0 -- -- 80
2019-02-10 03:00:00 8.7 0 Calma 18 Noroeste 0 -- -- 76
2019-02-10 02:00:00 9.4 6 Noroeste 18 Noroeste 0 -- -- 78
2019-02-10 01:00:00 10.4 2 Sudeste 7 Norte 0 -- -- 84
2019-02-10 00:00:00 9 2 Norte 5 Noroeste 0 -- -- 81
2019-02-09 23:00:00 9.8 0 Calma 5 Nordeste 0 -- -- 80
2019-02-09 22:00:00 10.2 4 Norte 7 Norte 0 -- -- 83
2019-02-09 21:00:00 11.1 0 Calma 6 Oeste 0 -- -- 85
2019-02-09 20:00:00 12.7 3 Oeste 6 Sudoeste 0 -- -- 82
2019-02-09 19:00:00 13.6 4 Oeste 9 Oeste 0 -- -- 80
2019-02-09 18:00:00 15 5 Sudoeste 10 Sudoeste 0 -- -- 78
2019-02-09 17:00:00 15.8 4 Sur 9 Sudoeste 0 -- -- 76
2019-02-09 16:00:00 17.8 4 Sur 12 Sudoeste 0 -- -- 68
2019-02-09 15:00:00 18.4 5 Sur 10 Sudoeste 0 -- -- 64
2019-02-09 14:00:00 19.1 4 Sur 12 Sur 0 -- -- 58
2019-02-09 13:00:00 19 8 Sur 12 Sur 0 -- -- 59
2019-02-09 12:00:00 20.8 5 Sur 9 Sudoeste 0 -- -- 49
2019-02-09 11:00:00 19.1 5 Sudeste 9 Sudeste 0 -- -- 51
2019-02-09 10:00:00 17.1 0 Calma 4 Este 0 -- -- 64
2019-02-09 09:00:00 11.9 0 Calma 5 Noroeste 0 -- -- 87
2019-02-09 08:00:00 6.9 0 Calma 4 Noroeste 0 -- -- 92
2019-02-09 07:00:00 7.3 0 Calma 4 Noroeste 0 -- -- 93
2019-02-09 06:00:00 7.7 0 Calma 3 Norte 0 -- -- 93
2019-02-09 05:00:00 8.4 0 Calma 6 Nordeste 0 -- -- 93
2019-02-09 04:00:00 9.1 4 Norte 9 Nordeste 0 -- -- 93
2019-02-09 03:00:00 10 2 Norte 8 Norte 0 -- -- 92
2019-02-09 02:00:00 10.2 0 Calma 5 Nordeste 0 -- -- 92
2019-02-09 01:00:00 10.1 2 Norte 6 Noroeste 0 -- -- 91
2019-02-09 00:00:00 10.7 0 Calma 4 Nordeste 0 -- -- 91
2019-02-08 23:00:00 12 0 Calma 5 Noroeste 0 -- -- 90
2019-02-08 22:00:00 12.6 2 Norte 4 Norte 0 -- -- 90
2019-02-08 21:00:00 12 0 Calma 4 Norte 0 -- -- 89
2019-02-08 20:00:00 12.7 0 Calma 4 Oeste 0 -- -- 88
2019-02-08 19:00:00 13.7 2 Sudoeste 5 Sur 0 -- -- 86
2019-02-08 18:00:00 14.8 4 Sudoeste 10 Sur 0 -- -- 83
2019-02-08 17:00:00 15.2 9 Sur 18 Sudeste 0 -- -- 80
2019-02-08 16:00:00 15.8 13 Sudeste 23 Sudeste 0 -- -- 80
2019-02-08 15:00:00 15.5 19 Sudeste 26 Sudeste 0 -- -- 81
2019-02-08 14:00:00 15.9 22 Sudeste 27 Sudeste 0 -- -- 79
2019-02-08 13:00:00 16.3 22 Sudeste 28 Sudeste 0 -- -- 77
2019-02-08 12:00:00 16.4 17 Sudeste 23 Sudeste 5 -- -- 77
2019-02-08 11:00:00 20.1 5 Oeste 11 Sudoeste 0 -- -- 58
2019-02-08 10:00:00 17.9 0 Calma 4 Sur 0 -- -- 54
2019-02-08 09:00:00 11.3 0 Calma 3 Norte 0 -- -- 78
2019-02-08 08:00:00 7 2 Norte 5 Noroeste 0 -- -- 86
2019-02-08 07:00:00 7.4 0 Calma 4 Norte 0 -- -- 87
2019-02-08 06:00:00 7.6 0 Calma 3 Sudeste 0 -- -- 87
2019-02-08 05:00:00 8.4 2 Sudeste 4 Norte 0 -- -- 88
2019-02-08 04:00:00 8.3 3 Noroeste 4 Noroeste 0 -- -- 87
2019-02-08 03:00:00 8.7 0 Calma 5 Norte 0 -- -- 88
2019-02-08 02:00:00 9.7 0 Calma 5 Noroeste 0 -- -- 88
2019-02-08 01:00:00 9.6 0 Calma 6 Norte 0 -- -- 87
2019-02-08 00:00:00 10.1 0 Calma 6 Nordeste 0 -- -- 86
2019-02-07 23:00:00 10.3 2 Norte 5 Norte 0 -- -- 85
2019-02-07 22:00:00 10.8 3 Norte 5 Norte 0 -- -- 85
2019-02-07 21:00:00 11.8 0 Calma 6 Este 0 -- -- 84
2019-02-07 20:00:00 12.9 3 Este 6 Este 0 -- -- 83
2019-02-07 19:00:00 14.1 3 Nordeste 5 Sur 0 -- -- 81
2019-02-07 18:00:00 15.1 3 Sur 8 Sur 0 -- -- 77
2019-02-07 17:00:00 15.8 4 Sur 8 Sur 0 -- -- 73
2019-02-07 16:00:00 18.3 4 Sur 11 Sudoeste 0 -- -- 63
2019-02-07 15:00:00 18.8 5 Sur 11 Sudoeste 0 -- -- 60
2019-02-07 14:00:00 18.8 5 Sur 10 Sur 0 -- -- 62
2019-02-07 13:00:00 19.1 5 Sur 12 Sudoeste 0 -- -- 63
2019-02-07 12:00:00 20.5 6 Sudoeste 15 Sudoeste 0 -- -- 57
2019-02-07 11:00:00 19.4 7 Oeste 12 Oeste 0 -- -- 59
2019-02-07 10:00:00 17.3 0 Calma 5 Norte 0 -- -- 50
2019-02-07 09:00:00 10 0 Calma 6 Norte 0 -- -- 71
2019-02-07 08:00:00 7.4 0 Calma 4 Nordeste 0 -- -- 75
2019-02-07 07:00:00 7.2 0 Calma 5 Norte 0 -- -- 75
2019-02-07 06:00:00 7.2 2 Norte 4 Noroeste 0 -- -- 73
2019-02-07 05:00:00 7 0 Calma 4 Norte 0 -- -- 74
2019-02-07 04:00:00 7.3 0 Calma 3 Norte 0 -- -- 78
2019-02-07 03:00:00 7.8 2 Noroeste 5 Noroeste 0 -- -- 75
2019-02-07 02:00:00 7.8 0 Calma 4 Noroeste 0 -- -- 74
2019-02-07 01:00:00 7.9 0 Calma 4 Norte 0 -- -- 73
2019-02-07 00:00:00 8.7 0 Calma 3 Noroeste 0 -- -- 72
2019-02-06 23:00:00 9.5 0 Calma 3 Noroeste 0 -- -- 71
2019-02-06 22:00:00 9.6 0 Calma 4 Este 0 -- -- 65
2019-02-06 21:00:00 10.6 0 Calma 3 Nordeste 0 -- -- 68
2019-02-06 20:00:00 11.8 0 Calma 3 Nordeste 0 -- -- 67
2019-02-06 19:00:00 13.3 2 Oeste 8 Sudoeste 0 -- -- 60
2019-02-06 18:00:00 14.8 6 Sudoeste 9 Sudoeste 0 -- -- 60
2019-02-06 17:00:00 15.8 6 Sudoeste 13 Oeste 0 -- -- 41
2019-02-06 16:00:00 18.1 6 Sudoeste 12 Sudoeste 0 -- -- 51
2019-02-06 15:00:00 19.5 4 Sudoeste 10 Sudoeste 0 -- -- 45
2019-02-06 14:00:00 19.2 6 Sudoeste 12 Sudoeste 0 -- -- 45
2019-02-06 13:00:00 20.9 6 Sudoeste 9 Sudoeste 0 -- -- 41
2019-02-06 12:00:00 20.3 4 Sur 6 Sur 0 -- -- 37
2019-02-06 11:00:00 21 2 Sudeste 4 Sudeste 0 -- -- 36
2019-02-06 10:00:00 19.1 0 Calma 5 Noroeste 0 -- -- 38
2019-02-06 09:00:00 10.8 0 Calma 3 Oeste 0 -- -- 58
2019-02-06 08:00:00 6.7 2 Nordeste 5 Norte 0 -- -- 70
2019-02-06 07:00:00 6.6 0 Calma 2 Este 0 -- -- 72
2019-02-06 06:00:00 6.6 0 Calma 3 Este 0 -- -- 71
2019-02-06 05:00:00 6.6 0 Calma 6 Norte 0 -- -- 70
2019-02-06 04:00:00 6.8 2 Norte 4 Norte 0 -- -- 69
2019-02-06 03:00:00 6.9 0 Calma 4 Oeste 0 -- -- 73
2019-02-06 02:00:00 7.6 2 Noroeste 5 Noroeste 0 -- -- 69
2019-02-06 01:00:00 8.1 3 Este 5 Norte 0 -- -- 74
2019-02-06 00:00:00 8.2 0 Calma 3 Norte 0 -- -- 71
2019-02-05 23:00:00 8.6 0 Calma 5 Norte 0 -- -- 73
2019-02-05 22:00:00 9.4 2 Norte 5 Nordeste 0 -- -- 71
2019-02-05 21:00:00 10.5 0 Calma 5 Nordeste 0 -- -- 71
2019-02-05 20:00:00 11.5 3 Norte 6 Oeste 0 -- -- 67
2019-02-05 19:00:00 12.6 4 Oeste 11 Oeste 0 -- -- 62
2019-02-05 18:00:00 13.9 5 Oeste 13 Oeste 0 -- -- 58
2019-02-05 17:00:00 14.8 5 Oeste 15 Sudoeste 0 -- -- 55
2019-02-05 16:00:00 16.2 9 Sudoeste 16 Sudoeste 0 -- -- 53
2019-02-05 15:00:00 16.6 9 Sudoeste 17 Sudoeste 0 -- -- 45
2019-02-05 14:00:00 18.6 6 Sudoeste 14 Sudoeste 0 -- -- 44
2019-02-05 13:00:00 19.5 7 Sudoeste 12 Sudoeste 0 -- -- 43
2019-02-05 12:00:00 18.3 4 Sur 6 Sur 0 -- -- 48
2019-02-05 11:00:00 18.4 3 Sudeste 5 Sur 0 -- -- 41
2019-02-05 10:00:00 17.2 2 Noroeste 4 Nordeste 0 -- -- 42
2019-02-05 09:00:00 11.1 0 Calma 3 Norte 0 -- -- 62
2019-02-05 08:00:00 6.6 0 Calma 5 Nordeste 0 -- -- 75
2019-02-05 07:00:00 6.2 0 Calma 5 Nordeste 0 -- -- 74
2019-02-05 06:00:00 6.7 0 Calma 4 Norte 0 -- -- 74
2019-02-05 05:00:00 6.9 2 Norte 4 Nordeste 0 -- -- 72
2019-02-05 04:00:00 7.2 3 Norte 6 Norte 0 -- -- 70
2019-02-05 03:00:00 7 0 Calma 4 Norte 0 -- -- 73
2019-02-05 02:00:00 7.2 0 Calma 5 Noroeste 0 -- -- 74
2019-02-05 01:00:00 7.8 4 Norte 5 Noroeste 0 -- -- 72
2019-02-05 00:00:00 8 0 Calma 5 Nordeste 0 -- -- 70
2019-02-04 23:00:00 8.7 3 Norte 6 Norte 0 -- -- 70
2019-02-04 22:00:00 9.2 2 Nordeste 5 Nordeste 0 -- -- 69
2019-02-04 21:00:00 9.9 0 Calma 7 Nordeste 0 -- -- 66
2019-02-04 20:00:00 11 5 Nordeste 8 Nordeste 0 -- -- 65
2019-02-04 19:00:00 12.5 0 Calma 11 Oeste 0 -- -- 57
2019-02-04 18:00:00 13.7 5 Oeste 13 Oeste 0 -- -- 52
2019-02-04 17:00:00 14.4 6 Sudoeste 15 Sudoeste 0 -- -- 51
2019-02-04 16:00:00 16.4 6 Sudoeste 13 Sudoeste 0 -- -- 46
2019-02-04 15:00:00 17.7 5 Sur 12 Sur 0 -- -- 43
2019-02-04 14:00:00 17.4 9 Sur 15 Sur 0 -- -- 42
2019-02-04 13:00:00 17 12 Sudeste 15 Sudeste 0 -- -- 47
2019-02-04 12:00:00 17.6 12 Sudeste 15 Sudeste 0 -- -- 46
2019-02-04 11:00:00 18.4 5 Nordeste 18 Norte 0 -- -- 28
2019-02-04 10:00:00 15.4 9 Norte 23 Norte 0 -- -- 26
2019-02-04 09:00:00 12.1 9 Norte 27 Noroeste 0 -- -- 32
2019-02-04 08:00:00 9.7 10 Norte 31 Norte 0 -- -- 35
2019-02-04 07:00:00 9.8 13 Norte 31 Noroeste 0 -- -- 35
2019-02-04 06:00:00 10.1 13 Norte 31 Norte 0 -- -- 33
2019-02-04 05:00:00 10.3 12 Norte 27 Norte 0 -- -- 33
2019-02-04 04:00:00 10.5 10 Norte 31 Norte 0 -- -- 33
2019-02-04 03:00:00 10.8 11 Norte 27 Norte 0 -- -- 32
2019-02-04 02:00:00 11 13 Norte 31 Norte 0 -- -- 32
2019-02-04 01:00:00 11.3 13 Norte 31 Norte 0 -- -- 32
2019-02-04 00:00:00 11.4 9 Norte 22 Norte 0 -- -- 31
2019-02-03 23:00:00 11.8 8 Norte 18 Norte 0 -- -- 30
2019-02-03 22:00:00 11.6 6 Norte 13 Norte 0 -- -- 38
2019-02-03 21:00:00 11.1 4 Nordeste 9 Nordeste 0 -- -- 38
2019-02-03 20:00:00 12.1 4 Norte 9 Norte 0 -- -- 30
2019-02-03 19:00:00 13.3 7 Noroeste 23 Noroeste 0 -- -- 30
2019-02-03 18:00:00 15.4 9 Noroeste 28 Oeste 0 -- -- 24
2019-02-03 17:00:00 16.2 12 Oeste 26 Noroeste 0 -- -- 22
2019-02-03 16:00:00 16.3 11 Sudoeste 22 Sudoeste 0 -- -- 38
2019-02-03 15:00:00 16.3 10 Sur 21 Sur 0 -- -- 32
2019-02-03 14:00:00 17.4 10 Sur 18 Sudeste 0 -- -- 38
2019-02-03 13:00:00 17.8 9 Sur 21 Sudeste 0 -- -- 36
2019-02-03 12:00:00 20.9 3 Sur 16 Norte 0 -- -- 24
2019-02-03 11:00:00 16.8 9 Noroeste 24 Noroeste 0 -- -- 23
2019-02-03 10:00:00 15.2 7 Norte 25 Noroeste 0 -- -- 30
2019-02-03 09:00:00 11.6 11 Norte 26 Noroeste 0 -- -- 32
2019-02-03 08:00:00 8.5 12 Oeste 18 Oeste 0 -- -- 45
2019-02-03 07:00:00 8.6 5 Noroeste 15 Nordeste 0 -- -- 44
2019-02-03 06:00:00 10 6 Norte 22 Norte 0 -- -- 38
2019-02-03 05:00:00 9.9 15 Noroeste 30 Noroeste 0 -- -- 40
2019-02-03 04:00:00 9.5 8 Noroeste 30 Noroeste 0 -- -- 43
2019-02-03 03:00:00 10.8 15 Noroeste 34 Noroeste 0 -- -- 36
2019-02-03 02:00:00 10.6 13 Noroeste 30 Noroeste 0 -- -- 40
2019-02-03 01:00:00 10.7 11 Noroeste 39 Noroeste 0 -- -- 44
2019-02-03 00:00:00 11.3 17 Noroeste 61 Oeste 0 -- -- 43
2019-02-02 23:00:00 12 32 Noroeste 57 Oeste 0 -- -- 42
2019-02-02 22:00:00 12.1 24 Noroeste 48 Noroeste 0 -- -- 41
2019-02-02 21:00:00 12.4 24 Noroeste 45 Oeste 0 -- -- 41
2019-02-02 20:00:00 12.7 17 Noroeste 34 Noroeste 0 -- -- 38
2019-02-02 19:00:00 12.8 13 Noroeste 44 Oeste 0 -- -- 40
2019-02-02 18:00:00 14.2 24 Oeste 36 Oeste 0 -- -- 35
2019-02-02 17:00:00 14.7 16 Oeste 48 Oeste 0 -- -- 34
2019-02-02 16:00:00 15.5 25 Noroeste 45 Noroeste 0 -- -- 32
2019-02-02 15:00:00 16.2 21 Noroeste 47 Noroeste 0 -- -- 31
2019-02-02 14:00:00 16.7 16 Noroeste 55 Oeste 0 -- -- 31
2019-02-02 13:00:00 16.6 23 Oeste 51 Oeste 0 -- -- 33
2019-02-02 12:00:00 15.9 26 Oeste 48 Oeste 0 -- -- 37
2019-02-02 11:00:00 13.8 22 Noroeste 45 Noroeste 0 -- -- 41
2019-02-02 10:00:00 13.9 8 Noroeste 35 Oeste 0 -- -- 45
2019-02-02 09:00:00 13.5 3 Noroeste 28 Norte 0 -- -- 51
2019-02-02 08:00:00 10.9 4 Noroeste 23 Oeste 0.2 -- -- 61
2019-02-02 07:00:00 10.9 10 Noroeste 22 Oeste 0 -- -- 62
2019-02-02 06:00:00 11.3 6 Noroeste 26 Oeste 0 -- -- 61
2019-02-02 05:00:00 11.6 15 Oeste 36 Oeste 0 -- -- 61
2019-02-02 04:00:00 11.8 16 Oeste 39 Noroeste 0 -- -- 54
2019-02-02 03:00:00 11 9 Noroeste 40 Oeste 0 -- -- 53
2019-02-02 02:00:00 11.2 14 Oeste 34 Oeste 0 -- -- 59
2019-02-02 01:00:00 11.6 8 Noroeste 31 Oeste 0 -- -- 52
2019-02-02 00:00:00 11.7 13 Noroeste 38 Noroeste 0 -- -- 56
2019-02-01 23:00:00 12 16 Oeste 35 Oeste 0 -- -- 58
2019-02-01 22:00:00 11.7 8 Oeste 33 Oeste 0 -- -- 68
2019-02-01 21:00:00 12.9 25 Oeste 44 Oeste 0 -- -- 64
2019-02-01 20:00:00 12.1 17 Oeste 58 Oeste 0 -- -- 70
2019-02-01 19:00:00 14 23 Oeste 52 Oeste 0.2 -- -- 51
2019-02-01 18:00:00 15.1 26 Oeste 53 Oeste 0 -- -- 48
2019-02-01 17:00:00 16.6 23 Oeste 45 Oeste 0 -- -- 44
2019-02-01 16:00:00 17.1 30 Oeste 60 Oeste 0 -- -- 43
2019-02-01 15:00:00 17.5 33 Oeste 58 Sudoeste 0 -- -- 42
2019-02-01 14:00:00 17.8 31 Oeste 50 Oeste 0 -- -- 50
2019-02-01 13:00:00 17.1 24 Oeste 48 Oeste 0 -- -- 54
2019-02-01 12:00:00 14.8 6 Oeste 20 Oeste 0 -- -- 80
2019-02-01 11:00:00 14.4 21 Oeste 68 Oeste 2 -- -- 93
2019-02-01 10:00:00 14.3 39 Oeste 66 Sudoeste 4.8 -- -- 93
2019-02-01 09:00:00 14.1 31 Oeste 58 Sudoeste 2.8 -- -- 93
2019-02-01 08:00:00 14.4 27 Oeste 59 Sudoeste 0.4 -- -- 90
2019-02-01 07:00:00 14.1 22 Oeste 53 Sudoeste 0.2 -- -- 93
2019-02-01 06:00:00 14 22 Oeste 39 Oeste 0.4 -- -- 94
2019-02-01 05:00:00 14 18 Oeste 51 Sudoeste 0.2 -- -- 92
2019-02-01 04:00:00 14.7 19 Oeste 45 Sudoeste 0 -- -- 87
2019-02-01 03:00:00 14.5 29 Oeste 56 Oeste 0.4 -- -- 87
2019-02-01 02:00:00 14 26 Oeste 44 Oeste 0.2 -- -- 91
2019-02-01 01:00:00 14.1 23 Oeste 46 Oeste 0 -- -- 87
2019-02-01 00:00:00 14.9 22 Oeste 42 Oeste 0 -- -- 80
2019-01-31 23:00:00 15 18 Oeste 44 Oeste 0 -- -- 79
2019-01-31 22:00:00 15.2 24 Oeste 44 Oeste 0 -- -- 74
2019-01-31 21:00:00 15.3 26 Oeste 46 Oeste 0 -- -- 75
2019-01-31 20:00:00 15 27 Oeste 50 Sudoeste 0 -- -- 80
2019-01-31 19:00:00 15 25 Oeste 49 Oeste 0 -- -- 80
2019-01-31 18:00:00 15.4 24 Oeste 43 Oeste 0 -- -- 79
2019-01-31 17:00:00 15.6 20 Oeste 44 Oeste 0 -- -- 78
2019-01-31 16:00:00 16.1 25 Oeste 45 Oeste 0 -- -- 75
2019-01-31 15:00:00 16.3 20 Oeste 42 Oeste 0 -- -- 76
2019-01-31 14:00:00 16.2 26 Oeste 50 Sudoeste 0 -- -- 78
2019-01-31 13:00:00 16.8 22 Oeste 45 Oeste 0 -- -- 76
2019-01-31 12:00:00 16 24 Oeste 53 Oeste 0 -- -- 83
2019-01-31 11:00:00 15.9 29 Oeste 49 Oeste 0 -- -- 82
2019-01-31 10:00:00 14.8 24 Noroeste 41 Oeste 0 -- -- 82
2019-01-31 09:00:00 14.6 21 Oeste 38 Oeste 0 -- -- 82
2019-01-31 08:00:00 14.4 28 Oeste 41 Oeste 0 -- -- 81
2019-01-31 07:00:00 14.6 23 Oeste 35 Sudoeste 0 -- -- 77
2019-01-31 06:00:00 14.4 13 Oeste 26 Oeste 0 -- -- 79
2019-01-31 05:00:00 14.2 13 Oeste 31 Oeste 0 -- -- 79
2019-01-31 04:00:00 14.4 16 Oeste 24 Oeste 0 -- -- 76
2019-01-31 03:00:00 14.5 13 Oeste 31 Oeste 0 -- -- 72
2019-01-31 02:00:00 14.6 17 Oeste 40 Oeste 0 -- -- 75
2019-01-31 01:00:00 14.7 18 Oeste 34 Oeste 0 -- -- 73
2019-01-31 00:00:00 14.8 14 Oeste 30 Oeste 0 -- -- 68
2019-01-30 23:00:00 14.8 14 Oeste 25 Oeste 0 -- -- 67
2019-01-30 22:00:00 15 6 Noroeste 13 Noroeste 0 -- -- 62
2019-01-30 21:00:00 15.4 9 Oeste 25 Oeste 0 -- -- 59
2019-01-30 20:00:00 15.3 0 Calma 13 Noroeste 0 -- -- 49
2019-01-30 19:00:00 15.7 7 Noroeste 16 Noroeste 0 -- -- 43
2019-01-30 18:00:00 16.5 12 Noroeste 24 Noroeste 0 -- -- 39
2019-01-30 17:00:00 17.4 10 Noroeste 27 Oeste 0 -- -- 37
2019-01-30 16:00:00 17.9 14 Noroeste 33 Oeste 0 -- -- 35
2019-01-30 15:00:00 18.2 21 Oeste 41 Oeste 0 -- -- 41
2019-01-30 14:00:00 18.8 13 Norte 31 Noroeste 0 -- -- 36
2019-01-30 13:00:00 19.6 17 Noroeste 48 Oeste 0 -- -- 35
2019-01-30 12:00:00 17.6 31 Noroeste 47 Noroeste 0 -- -- 38
2019-01-30 11:00:00 16.2 22 Oeste 44 Oeste 0 -- -- 44
2019-01-30 10:00:00 15.8 9 Noroeste 37 Oeste 0 -- -- 43
2019-01-30 09:00:00 15.3 19 Oeste 48 Oeste 0 -- -- 48
2019-01-30 08:00:00 15.2 21 Oeste 39 Oeste 0 -- -- 48
2019-01-30 07:00:00 15.3 23 Noroeste 37 Oeste 0 -- -- 48
2019-01-30 06:00:00 14.7 9 Noroeste 27 Noroeste 0 -- -- 51
2019-01-30 05:00:00 14.9 13 Oeste 37 Noroeste 0 -- -- 51
2019-01-30 04:00:00 15.1 21 Oeste 39 Noroeste 0 -- -- 49
2019-01-30 03:00:00 15.2 20 Oeste 36 Oeste 0 -- -- 59
2019-01-30 02:00:00 15.6 18 Oeste 30 Oeste 0 -- -- 55
2019-01-30 01:00:00 15.8 13 Oeste 30 Oeste 0 -- -- 54
2019-01-30 00:00:00 16.1 14 Oeste 30 Oeste 0 -- -- 53
2019-01-29 23:00:00 16.3 17 Oeste 34 Oeste 0 -- -- 50
2019-01-29 22:00:00 16.4 20 Oeste 37 Oeste 0 -- -- 47
2019-01-29 21:00:00 16.2 11 Oeste 44 Oeste 0 -- -- 48
2019-01-29 20:00:00 16.4 17 Noroeste 44 Oeste 0 -- -- 47
2019-01-29 19:00:00 16.2 17 Oeste 57 Noroeste 0 -- -- 46
2019-01-29 18:00:00 16.5 21 Noroeste 48 Oeste 0 -- -- 46
2019-01-29 17:00:00 17.8 28 Oeste 48 Noroeste 0 -- -- 43
2019-01-29 16:00:00 20 23 Oeste 42 Oeste 0 -- -- 38
2019-01-29 15:00:00 20.5 18 Noroeste 38 Noroeste 0 -- -- 36
2019-01-29 14:00:00 21.1 26 Noroeste 43 Noroeste 0 -- -- 35
2019-01-29 13:00:00 19.6 18 Oeste 32 Norte 0 -- -- 44
2019-01-29 12:00:00 19.6 21 Noroeste 38 Oeste 0 -- -- 36
2019-01-29 11:00:00 17.6 15 Norte 62 Norte 0 -- -- 40
2019-01-29 10:00:00 17.5 18 Noroeste 42 Norte 0 -- -- 41
2019-01-29 09:00:00 15.6 30 Noroeste 50 Noroeste 0 -- -- 45
2019-01-29 08:00:00 13.7 5 Sudoeste 18 Noroeste 0 -- -- 52
2019-01-29 07:00:00 13.8 10 Norte 24 Noroeste 0 -- -- 51
2019-01-29 06:00:00 13.9 9 Noroeste 27 Norte 0 -- -- 52
2019-01-29 05:00:00 14.1 10 Noroeste 31 Norte 0 -- -- 52
2019-01-29 04:00:00 14.6 13 Norte 31 Norte 0 -- -- 50
2019-01-29 03:00:00 14.8 13 Norte 28 Nordeste 0 -- -- 49
2019-01-29 02:00:00 15.1 11 Norte 36 Norte 0 -- -- 52
2019-01-29 01:00:00 15.5 15 Norte 31 Norte 0 -- -- 49
2019-01-29 00:00:00 15.9 13 Norte 50 Noroeste 0 -- -- 47
2019-01-28 23:00:00 16.2 31 Noroeste 62 Noroeste 0 -- -- 46
2019-01-28 22:00:00 15.6 28 Oeste 71 Noroeste 0 -- -- 50
2019-01-28 21:00:00 15.5 38 Noroeste 70 Oeste 0 -- -- 50
2019-01-28 20:00:00 15.7 44 Noroeste 74 Oeste 0 -- -- 48
2019-01-28 19:00:00 16 37 Noroeste 59 Noroeste 0 -- -- 44
2019-01-28 18:00:00 16.3 28 Noroeste 65 Oeste 0 -- -- 41
2019-01-28 17:00:00 18 23 Noroeste 44 Oeste 0 -- -- 34
2019-01-28 16:00:00 20.3 22 Oeste 42 Oeste 0 -- -- 24
2019-01-28 15:00:00 18.1 23 Oeste 39 Oeste 0 -- -- 47
2019-01-28 14:00:00 17.1 22 Oeste 45 Oeste 0 -- -- 51
2019-01-28 13:00:00 16.5 27 Oeste 45 Oeste 0 -- -- 47
2019-01-28 12:00:00 18.2 21 Oeste 36 Oeste 0 -- -- 43
2019-01-28 11:00:00 18.7 8 Norte 31 Norte 0 -- -- 32
2019-01-28 10:00:00 15.2 12 Noroeste 40 Noroeste 0 -- -- 37
2019-01-28 09:00:00 13 26 Noroeste 42 Oeste 0 -- -- 43
2019-01-28 08:00:00 11.4 3 Norte 21 Nordeste 0 -- -- 50
2019-01-28 07:00:00 11.9 7 Norte 31 Noroeste 0 -- -- 47
2019-01-28 06:00:00 12.1 13 Norte 36 Norte 0 -- -- 47
2019-01-28 05:00:00 12.9 18 Norte 35 Norte 0 -- -- 44
2019-01-28 04:00:00 13 15 Norte 38 Noroeste 0 -- -- 45
2019-01-28 03:00:00 13.3 14 Norte 37 Noroeste 0 -- -- 44
2019-01-28 02:00:00 13.9 14 Norte 39 Norte 0 -- -- 42
2019-01-28 01:00:00 13.9 16 Norte 41 Nordeste 0 -- -- 43
2019-01-28 00:00:00 14 13 Norte 33 Norte 0 -- -- 42
2019-01-27 23:00:00 14.7 14 Norte 40 Norte 0 -- -- 40
2019-01-27 22:00:00 15 11 Noroeste 39 Noroeste 0 -- -- 41
2019-01-27 21:00:00 15.5 20 Noroeste 56 Noroeste 0 -- -- 41
2019-01-27 20:00:00 15.7 26 Noroeste 59 Noroeste 0 -- -- 45
2019-01-27 19:00:00 15.9 28 Oeste 75 Noroeste 0 -- -- 42
2019-01-27 18:00:00 17.3 28 Noroeste 68 Noroeste 0 -- -- 43
2019-01-27 17:00:00 19.3 28 Oeste 45 Noroeste 0 -- -- 33
2019-01-27 16:00:00 19.7 18 Noroeste 48 Oeste 0 -- -- 35
2019-01-27 15:00:00 19.8 22 Oeste 36 Sudoeste 0 -- -- 41
2019-01-27 14:00:00 20.4 16 Oeste 35 Oeste 0 -- -- 42
2019-01-27 13:00:00 20.7 17 Oeste 35 Oeste 0 -- -- 39
2019-01-27 12:00:00 19.3 19 Oeste 47 Oeste 0 -- -- 49
2019-01-27 11:00:00 19.6 27 Oeste 42 Oeste 0 -- -- 33
2019-01-27 10:00:00 19 28 Noroeste 48 Noroeste 0 -- -- 35
2019-01-27 09:00:00 17.3 20 Noroeste 43 Noroeste 0 -- -- 41
2019-01-27 08:00:00 16.2 28 Noroeste 50 Noroeste 0 -- -- 49
2019-01-27 07:00:00 13.9 14 Oeste 23 Oeste 0 -- -- 67
2019-01-27 06:00:00 12.5 13 Oeste 22 Oeste 0 -- -- 78
2019-01-27 05:00:00 11 11 Oeste 19 Oeste 0 -- -- 89
2019-01-27 04:00:00 10.6 9 Oeste 14 Oeste 0 -- -- 95
2019-01-27 03:00:00 9.5 4 Noroeste 8 Noroeste 0 -- -- 96
2019-01-27 02:00:00 10.4 2 Nordeste 6 Norte 0 -- -- 95
2019-01-27 01:00:00 10.8 0 Calma 6 Norte 0 -- -- 95
2019-01-27 00:00:00 11.3 0 Calma 6 Nordeste 0 -- -- 95
2019-01-26 23:00:00 11.7 3 Nordeste 5 Norte 0 -- -- 95
2019-01-26 22:00:00 11.9 2 Norte 4 Norte 0 -- -- 94
2019-01-26 21:00:00 12.5 2 Noroeste 8 Oeste 0 -- -- 93
2019-01-26 20:00:00 12.7 0 Calma 5 Noroeste 0 -- -- 92
2019-01-26 19:00:00 13 3 Oeste 10 Sudoeste 0 -- -- 91
2019-01-26 18:00:00 14.2 5 Sudoeste 9 Sudoeste 0 -- -- 87
2019-01-26 17:00:00 14.9 4 Sur 9 Sudoeste 0 -- -- 85
2019-01-26 16:00:00 16.6 5 Sur 12 Sudoeste 0 -- -- 77
2019-01-26 15:00:00 18.2 5 Sudoeste 14 Sur 0 -- -- 71
2019-01-26 14:00:00 17.9 6 Sur 12 Sudeste 0 -- -- 73
2019-01-26 13:00:00 16.7 9 Sudeste 19 Sudeste 0 -- -- 76
2019-01-26 12:00:00 16.6 15 Sudeste 21 Sudeste 0 -- -- 77
2019-01-26 11:00:00 17.4 2 Sudeste 5 Sudeste 0 -- -- 74
2019-01-26 10:00:00 20 0 Calma 2 Noroeste 0 -- -- 59
2019-01-26 09:00:00 11.7 0 Calma 6 Norte 0 -- -- 83
2019-01-26 08:00:00 8.9 0 Calma 4 Norte 0 -- -- 88
2019-01-26 07:00:00 8.5 0 Calma 6 Noroeste 0 -- -- 86
2019-01-26 06:00:00 9.6 0 Calma 6 Noroeste 0 -- -- 88
2019-01-26 05:00:00 10.4 2 Noroeste 5 Noroeste 0 -- -- 86
2019-01-26 04:00:00 11.9 0 Calma 8 Sudeste 0 -- -- 81
2019-01-26 03:00:00 11.8 4 Sudeste 11 Nordeste 0 -- -- 74
2019-01-26 02:00:00 11.9 5 Sudeste 12 Sur 0 -- -- 78
2019-01-26 01:00:00 11.4 2 Nordeste 9 Norte 0 -- -- 78
2019-01-26 00:00:00 11.8 4 Norte 9 Norte 0 -- -- 78
2019-01-25 23:00:00 12.2 3 Sudeste 10 Nordeste 0 -- -- 82
2019-01-25 22:00:00 12.4 2 Este 5 Este 0 -- -- 83
2019-01-25 21:00:00 12.9 0 Calma 3 Noroeste 0 -- -- 83
2019-01-25 20:00:00 14.2 0 Calma 4 Norte 0 -- -- 82
2019-01-25 19:00:00 14.9 2 Sudoeste 5 Oeste 0 -- -- 75
2019-01-25 18:00:00 15.9 3 Sudoeste 6 Sudoeste 0 -- -- 76
2019-01-25 17:00:00 16.4 3 Sudeste 6 Sur 0 -- -- 79
2019-01-25 16:00:00 17.5 4 Sur 13 Sudoeste 0 -- -- 77
2019-01-25 15:00:00 18.6 8 Sudoeste 20 Sudeste 0 -- -- 74
2019-01-25 14:00:00 18.2 10 Sudeste 25 Sudeste 0.2 -- -- 63
2019-01-25 13:00:00 18 14 Sudeste 27 Sudeste 0 -- -- 63
2019-01-25 12:00:00 19 8 Sudeste 13 Sudeste 0 -- -- 59
2019-01-25 11:00:00 21.7 6 Sudeste 15 Nordeste 0 -- -- 45
2019-01-25 10:00:00 20.9 6 Norte 19 Norte 0 -- -- 40
2019-01-25 09:00:00 14.9 3 Sudeste 9 Norte 0 -- -- 63
2019-01-25 08:00:00 11.3 2 Nordeste 7 Nordeste 0 -- -- 72
2019-01-25 07:00:00 12 3 Nordeste 12 Sudeste 0 -- -- 66
2019-01-25 06:00:00 14.4 3 Noroeste 17 Este 0 -- -- 66
2019-01-25 05:00:00 13.9 3 Sur 13 Nordeste 0 -- -- 65
2019-01-25 04:00:00 15.5 3 Sudoeste 14 Sudeste 0 -- -- 60
2019-01-25 03:00:00 17.5 10 Norte 31 Norte 0 -- -- 45
2019-01-25 02:00:00 16.4 5 Norte 14 Nordeste 0 -- -- 49
2019-01-25 01:00:00 14.8 3 Noroeste 9 Noroeste 0 -- -- 58
2019-01-25 00:00:00 16.6 5 Sudeste 31 Norte 0 -- -- 57
2019-01-24 23:00:00 17.8 17 Norte 33 Nordeste 0 -- -- 47
2019-01-24 22:00:00 17.7 15 Norte 35 Norte 0 -- -- 48
2019-01-24 21:00:00 17.7 14 Norte 36 Norte 0 -- -- 49
2019-01-24 20:00:00 17.8 15 Norte 31 Norte 0 -- -- 50
2019-01-24 19:00:00 18.1 13 Norte 42 Norte 0 -- -- 49
2019-01-24 18:00:00 18.9 18 Norte 36 Norte 0 -- -- 46
2019-01-24 17:00:00 19.7 15 Norte 46 Norte 0 -- -- 44
2019-01-24 16:00:00 19.7 23 Norte 43 Norte 0 -- -- 44
2019-01-24 15:00:00 20 20 Norte 42 Norte 0 -- -- 43
2019-01-24 14:00:00 20 21 Norte 40 Norte 0 -- -- 43
2019-01-24 13:00:00 19.8 20 Norte 45 Norte 0 -- -- 43
2019-01-24 12:00:00 19.3 18 Norte 42 Norte 0 -- -- 44
2019-01-24 11:00:00 18.4 17 Norte 37 Nordeste 0 -- -- 46
2019-01-24 10:00:00 17.7 15 Norte 39 Noroeste 0 -- -- 47
2019-01-24 09:00:00 15.8 13 Noroeste 48 Noroeste 0 -- -- 53
2019-01-24 08:00:00 15.8 23 Noroeste 44 Oeste 0 -- -- 53
2019-01-24 07:00:00 15.5 9 Oeste 39 Oeste 0 -- -- 53
2019-01-24 06:00:00 14.8 19 Oeste 54 Noroeste 0 -- -- 59
2019-01-24 05:00:00 15.2 30 Noroeste 66 Oeste 0 -- -- 57
2019-01-24 04:00:00 15.3 23 Noroeste 62 Oeste 0 -- -- 57
2019-01-24 03:00:00 15.4 20 Oeste 55 Noroeste 0 -- -- 56
2019-01-24 02:00:00 15.7 18 Oeste 37 Oeste 0 -- -- 54
2019-01-24 01:00:00 15.6 20 Oeste 49 Oeste 0 -- -- 55
2019-01-24 00:00:00 15.9 21 Oeste 45 Oeste 0 -- -- 53
2019-01-23 23:00:00 16 23 Oeste 54 Oeste 0 -- -- 53
2019-01-23 22:00:00 15.9 32 Oeste 57 Oeste 0 -- -- 54
2019-01-23 21:00:00 16.1 29 Oeste 48 Oeste 0 -- -- 52
2019-01-23 20:00:00 16.1 23 Oeste 57 Noroeste 0 -- -- 52
2019-01-23 19:00:00 15.8 35 Oeste 62 Oeste 0 -- -- 53
2019-01-23 18:00:00 15.7 37 Oeste 70 Noroeste 0 -- -- 52
2019-01-23 17:00:00 15.5 45 Oeste 78 Noroeste 0 -- -- 51
2019-01-23 16:00:00 15.6 48 Noroeste 75 Noroeste 0 -- -- 51
2019-01-23 15:00:00 16.8 24 Noroeste 51 Noroeste 0 -- -- 48
2019-01-23 14:00:00 16.9 25 Noroeste 56 Noroeste 0 -- -- 47
2019-01-23 13:00:00 14.6 24 Noroeste 57 Oeste 0 -- -- 53
2019-01-23 12:00:00 14.4 30 Noroeste 63 Oeste 0 -- -- 53
2019-01-23 11:00:00 14.9 44 Noroeste 70 Oeste 0 -- -- 51
2019-01-23 10:00:00 13.6 50 Noroeste 78 Oeste 0 -- -- 53
2019-01-23 09:00:00 13.5 33 Noroeste 76 Noroeste 0 -- -- 53
2019-01-23 08:00:00 13.2 35 Noroeste 65 Oeste 0 -- -- 50
2019-01-23 07:00:00 13.5 23 Noroeste 46 Noroeste 0 -- -- 50
2019-01-23 06:00:00 14 23 Oeste 55 Oeste 0 -- -- 47
2019-01-23 05:00:00 14 27 Noroeste 52 Oeste 0 -- -- 49
2019-01-23 04:00:00 14.3 27 Oeste 48 Oeste 0 -- -- 51
2019-01-23 03:00:00 13.9 22 Oeste 42 Oeste 0 -- -- 56
2019-01-23 02:00:00 13.9 21 Oeste 41 Oeste 0 -- -- 58
2019-01-23 01:00:00 14 19 Oeste 42 Oeste 0 -- -- 55
2019-01-23 00:00:00 13 8 Noroeste 24 Noroeste 0 -- -- 58
2019-01-22 23:00:00 13.1 13 Noroeste 25 Noroeste 0 -- -- 58
2019-01-22 22:00:00 13 15 Noroeste 28 Oeste 0 -- -- 54
2019-01-22 21:00:00 12.9 9 Noroeste 33 Noroeste 0 -- -- 50
2019-01-22 20:00:00 12.8 16 Noroeste 54 Noroeste 0 -- -- 49
2019-01-22 19:00:00 13.1 31 Noroeste 53 Oeste 0 -- -- 44
2019-01-22 18:00:00 14 30 Oeste 49 Oeste 0 -- -- 39
2019-01-22 17:00:00 15.2 24 Oeste 44 Oeste 0 -- -- 34
2019-01-22 16:00:00 16 27 Noroeste 44 Noroeste 0 -- -- 34
2019-01-22 15:00:00 16.7 17 Noroeste 36 Noroeste 0 -- -- 36
2019-01-22 14:00:00 16.4 22 Noroeste 44 Noroeste 0 -- -- 35
2019-01-22 13:00:00 17.3 17 Noroeste 39 Oeste 0 -- -- 31
2019-01-22 12:00:00 14.3 24 Noroeste 43 Noroeste 0 -- -- 36
2019-01-22 11:00:00 13.3 24 Noroeste 53 Oeste 0 -- -- 38
2019-01-22 10:00:00 12.7 18 Oeste 28 Oeste 0 -- -- 42
2019-01-22 09:00:00 13.7 8 Oeste 16 Oeste 0 -- -- 35
2019-01-22 08:00:00 10 6 Nordeste 18 Noroeste 0 -- -- 46
2019-01-22 07:00:00 9.9 10 Noroeste 22 Noroeste 0 -- -- 44
2019-01-22 06:00:00 9.5 9 Norte 16 Norte 0 -- -- 45
2019-01-22 05:00:00 9.3 6 Norte 13 Norte 0 -- -- 44
2019-01-22 04:00:00 9.4 4 Noroeste 14 Oeste 0 -- -- 44
2019-01-22 03:00:00 9.1 0 Calma 9 Oeste 0 -- -- 45
2019-01-22 02:00:00 9.2 4 Norte 11 Norte 0 -- -- 49
2019-01-22 01:00:00 9.8 3 Nordeste 10 Nordeste 0 -- -- 58
2019-01-22 00:00:00 10.6 8 Nordeste 13 Nordeste 0 -- -- 59
2019-01-21 23:00:00 11.4 3 Nordeste 11 Norte 0 -- -- 49
2019-01-21 22:00:00 10.7 0 Calma 12 Sudeste 0 -- -- 64
2019-01-21 21:00:00 11.7 3 Norte 9 Norte 0 -- -- 68
2019-01-21 20:00:00 13 5 Este 12 Nordeste 0 -- -- 65
2019-01-21 19:00:00 14.6 6 Nordeste 23 Norte 0 -- -- 38
2019-01-21 18:00:00 15.8 9 Norte 27 Norte 0 -- -- 30
2019-01-21 17:00:00 17 10 Noroeste 27 Norte 0 -- -- 27
2019-01-21 16:00:00 16.4 7 Sudeste 24 Sudoeste 0 -- -- 45
2019-01-21 15:00:00 17.4 10 Sur 22 Sur 0 -- -- 44
2019-01-21 14:00:00 18.7 9 Sudoeste 18 Sudoeste 0 -- -- 35
2019-01-21 13:00:00 18.1 9 Sur 17 Sur 0 -- -- 44
2019-01-21 12:00:00 19.1 8 Sur 12 Sur 0 -- -- 35
2019-01-21 11:00:00 20.6 3 Noroeste 14 Nordeste 0 -- -- 28
2019-01-21 10:00:00 15.4 8 Nordeste 22 Norte 0 -- -- 37
2019-01-21 09:00:00 13.1 8 Nordeste 20 Norte 0 -- -- 42
2019-01-21 08:00:00 12.1 9 Norte 24 Norte 0 -- -- 42
2019-01-21 07:00:00 12.3 10 Norte 25 Noroeste 0 -- -- 41
2019-01-21 06:00:00 12.7 8 Norte 24 Noroeste 0 -- -- 40
2019-01-21 05:00:00 13 12 Norte 30 Norte 0 -- -- 40
2019-01-21 04:00:00 13.1 15 Norte 31 Norte 0 -- -- 39
2019-01-21 03:00:00 13.4 15 Norte 31 Norte 0 -- -- 39
2019-01-21 02:00:00 14.3 17 Norte 33 Norte 0 -- -- 34
2019-01-21 01:00:00 14.2 13 Norte 27 Norte 0 -- -- 37
2019-01-21 00:00:00 14.9 13 Norte 28 Norte 0 -- -- 36
2019-01-20 23:00:00 15.6 14 Norte 32 Norte 0 -- -- 32
2019-01-20 22:00:00 16.1 16 Norte 41 Noroeste 0 -- -- 28
2019-01-20 21:00:00 15.6 11 Noroeste 46 Nordeste 0 -- -- 31
2019-01-20 20:00:00 16 17 Norte 41 Norte 0 -- -- 31
2019-01-20 19:00:00 15.9 8 Noroeste 30 Norte 0 -- -- 36
2019-01-20 18:00:00 17.1 17 Norte 59 Oeste 0 -- -- 37
2019-01-20 17:00:00 17.6 21 Oeste 47 Oeste 0 -- -- 42
2019-01-20 16:00:00 18.2 30 Oeste 50 Noroeste 0 -- -- 45
2019-01-20 15:00:00 19.4 21 Noroeste 52 Oeste 0 -- -- 47
2019-01-20 14:00:00 20 20 Noroeste 42 Oeste 0 -- -- 49
2019-01-20 13:00:00 17.2 21 Oeste 41 Sudoeste 0 -- -- 67
2019-01-20 12:00:00 18.1 18 Oeste 31 Oeste 0 -- -- 67
2019-01-20 11:00:00 15.4 17 Oeste 32 Oeste 0 -- -- 76
2019-01-20 10:00:00 15 3 Norte 24 Oeste 0 -- -- 73
2019-01-20 09:00:00 13.2 6 Noroeste 27 Oeste 0 -- -- 76
2019-01-20 08:00:00 13.6 17 Oeste 28 Sudoeste 0 -- -- 75
2019-01-20 07:00:00 11.7 11 Oeste 22 Oeste 0 -- -- 86
2019-01-20 06:00:00 11.2 8 Oeste 13 Oeste 0 -- -- 88
2019-01-20 05:00:00 11.9 4 Noroeste 12 Oeste 0 -- -- 88
2019-01-20 04:00:00 12.5 3 Noroeste 9 Noroeste 0.2 -- -- 87
2019-01-20 03:00:00 12.8 2 Norte 6 Oeste 0 -- -- 86
2019-01-20 02:00:00 12.9 2 Norte 12 Oeste 0.4 -- -- 86
2019-01-20 01:00:00 13.3 6 Noroeste 21 Oeste 0.2 -- -- 84
2019-01-20 00:00:00 14.4 16 Oeste 28 Oeste 0 -- -- 75
2019-01-19 23:00:00 14.2 11 Oeste 31 Sudoeste 0 -- -- 70
2019-01-19 22:00:00 14.4 18 Oeste 32 Sudoeste 0 -- -- 68
2019-01-19 21:00:00 14.5 16 Oeste 26 Oeste 0 -- -- 70
2019-01-19 20:00:00 14.3 0 Calma 22 Oeste 0 -- -- 70
2019-01-19 19:00:00 14.7 15 Oeste 26 Oeste 0 -- -- 69
2019-01-19 18:00:00 14.7 10 Oeste 17 Oeste 0 -- -- 68
2019-01-19 17:00:00 15 6 Oeste 22 Oeste 0 -- -- 66
2019-01-19 16:00:00 15.1 13 Oeste 22 Oeste 0 -- -- 67
2019-01-19 15:00:00 15.2 14 Oeste 24 Oeste 0 -- -- 72
2019-01-19 14:00:00 15.9 9 Sudoeste 16 Sudoeste 0 -- -- 70
2019-01-19 13:00:00 16.1 6 Sudoeste 14 Sudoeste 0 -- -- 56
2019-01-19 12:00:00 16.2 3 Sudoeste 14 Noroeste 0 -- -- 49
2019-01-19 11:00:00 14.6 7 Noroeste 15 Oeste 0 -- -- 55
2019-01-19 10:00:00 12.9 6 Oeste 13 Oeste 0 -- -- 52
2019-01-19 09:00:00 14.5 2 Norte 13 Norte 0 -- -- 44
2019-01-19 08:00:00 11.7 4 Noroeste 14 Norte 0 -- -- 50
2019-01-19 07:00:00 11.4 5 Noroeste 21 Norte 0 -- -- 51
2019-01-19 06:00:00 12.1 8 Norte 22 Noroeste 0 -- -- 51
2019-01-19 05:00:00 12 5 Noroeste 18 Noroeste 0 -- -- 49
2019-01-19 04:00:00 12.3 9 Noroeste 15 Noroeste 0 -- -- 48
2019-01-19 03:00:00 13.2 12 Oeste 38 Oeste 0 -- -- 47
2019-01-19 02:00:00 13.7 17 Noroeste 42 Oeste 0 -- -- 46
2019-01-19 01:00:00 13.4 19 Oeste 32 Noroeste 0 -- -- 45
2019-01-19 00:00:00 13.9 19 Noroeste 34 Oeste 0 -- -- 41